createdAt,value
2023-05-09T00:01:15.217Z,10.65
2023-05-09T00:03:44.677Z,9.70
2023-05-09T00:06:11.861Z,12.13
2023-05-09T00:08:38.577Z,10.47
2023-05-09T00:11:05.565Z,9.65
2023-05-09T00:13:32.177Z,9.60
2023-05-09T00:15:59.192Z,11.95
2023-05-09T00:18:25.870Z,15.83
2023-05-09T00:20:52.550Z,9.60
2023-05-09T00:23:19.166Z,10.60
2023-05-09T00:25:45.881Z,16.45
2023-05-09T00:28:12.570Z,21.87
2023-05-09T00:30:39.196Z,18.73
2023-05-09T00:33:06.633Z,16.42
2023-05-09T00:35:33.346Z,13.70
2023-05-09T00:37:59.983Z,12.00
2023-05-09T00:40:26.669Z,11.97
2023-05-09T00:42:53.535Z,11.50
2023-05-09T00:45:20.459Z,13.47
2023-05-09T00:47:47.155Z,11.80
2023-05-09T00:50:14.111Z,11.63
2023-05-09T00:52:41.762Z,11.97
2023-05-09T00:55:09.169Z,12.13
2023-05-09T00:57:36.811Z,13.03
2023-05-09T01:00:04.795Z,12.17
2023-05-09T01:02:32.432Z,13.70
2023-05-09T01:04:59.407Z,11.50
2023-05-09T01:07:35.661Z,13.75
2023-05-09T01:10:20.186Z,11.77
2023-05-09T01:13:01.097Z,11.63
2023-05-09T01:15:34.234Z,11.37
2023-05-09T01:18:09.704Z,10.18
2023-05-09T01:20:46.105Z,10.48
2023-05-09T01:23:41.678Z,13.23
2023-05-09T01:26:36.670Z,11.65
2023-05-09T01:29:20.268Z,10.82
2023-05-09T01:31:49.465Z,11.23
2023-05-09T01:34:18.498Z,10.60
2023-05-09T01:36:49.675Z,11.70
2023-05-09T01:39:18.209Z,11.20
2023-05-09T01:41:46.550Z,12.83
2023-05-09T01:44:16.136Z,11.77
2023-05-09T01:46:44.399Z,12.50
2023-05-09T01:49:12.227Z,11.53
2023-05-09T01:51:40.784Z,11.93
2023-05-09T01:54:10.228Z,12.17
2023-05-09T01:56:38.067Z,11.20
2023-05-09T01:59:06.899Z,14.27
2023-05-09T02:01:35.140Z,12.40
2023-05-09T02:04:05.285Z,13.93
2023-05-09T02:06:32.846Z,10.90
2023-05-09T02:08:59.738Z,12.93
2023-05-09T02:11:26.521Z,14.50
2023-05-09T02:13:53.216Z,12.87
2023-05-09T02:16:20.818Z,15.43
2023-05-09T02:18:48.121Z,12.67
2023-05-09T02:21:14.803Z,12.53
2023-05-09T02:23:41.685Z,12.17
2023-05-09T02:26:08.579Z,12.33
2023-05-09T02:28:36.656Z,12.00
2023-05-09T02:31:07.288Z,13.27
2023-05-09T02:33:38.328Z,12.80
2023-05-09T02:36:06.162Z,12.10
2023-05-09T02:38:32.993Z,11.67
2023-05-09T02:40:59.610Z,12.87
2023-05-09T02:43:26.311Z,10.87
2023-05-09T02:45:53.005Z,12.33
2023-05-09T02:48:19.957Z,15.43
2023-05-09T02:50:46.849Z,12.80
2023-05-09T02:53:13.596Z,19.93
2023-05-09T02:55:40.293Z,11.90
2023-05-09T02:58:14.363Z,11.43
2023-05-09T03:00:42.106Z,12.60
2023-05-09T03:03:09.178Z,12.60
2023-05-09T03:05:35.972Z,13.30
2023-05-09T03:08:02.620Z,13.73
2023-05-09T03:10:29.318Z,12.67
2023-05-09T03:12:56.004Z,12.73
2023-05-09T03:15:22.781Z,17.57
2023-05-09T03:17:49.502Z,14.57
2023-05-09T03:22:54.410Z,13.20
2023-05-09T03:25:21.204Z,13.63
2023-05-09T03:27:47.820Z,15.27
2023-05-09T03:30:14.821Z,14.27
2023-05-09T03:32:41.522Z,13.27
2023-05-09T03:35:08.431Z,13.03
2023-05-09T03:37:35.045Z,13.43
2023-05-09T03:40:01.670Z,13.10
2023-05-09T03:42:28.284Z,12.93
2023-05-09T03:44:55.610Z,13.27
2023-05-09T03:47:22.290Z,15.17
2023-05-09T03:49:49.282Z,13.83
2023-05-09T03:52:16.030Z,14.40
2023-05-09T03:54:42.623Z,14.70
2023-05-09T03:57:09.283Z,12.70
2023-05-09T03:59:35.991Z,13.27
2023-05-09T04:02:03.523Z,14.93
2023-05-09T04:04:30.337Z,14.83
2023-05-09T04:06:57.263Z,13.40
2023-05-09T04:09:23.901Z,15.27
2023-05-09T04:11:50.526Z,18.13
2023-05-09T04:14:17.210Z,18.50
2023-05-09T04:16:43.845Z,14.60
2023-05-09T04:19:10.871Z,17.80
2023-05-09T04:21:37.835Z,14.37
2023-05-09T04:24:04.617Z,16.80
2023-05-09T04:26:31.669Z,13.80
2023-05-09T04:28:58.386Z,15.97
2023-05-09T04:31:25.167Z,13.80
2023-05-09T04:33:52.433Z,15.67
2023-05-09T04:36:19.076Z,17.37
2023-05-09T04:38:45.703Z,14.70
2023-05-09T04:41:12.360Z,15.13
2023-05-09T04:43:38.979Z,16.53
2023-05-09T04:46:05.835Z,15.37
2023-05-09T04:48:32.585Z,16.47
2023-05-09T04:50:59.461Z,14.63
2023-05-09T04:53:26.969Z,14.57
2023-05-09T04:55:53.642Z,14.50
2023-05-09T04:58:20.828Z,15.40
2023-05-09T05:00:47.421Z,14.33
2023-05-09T05:03:14.069Z,14.33
2023-05-09T05:05:41.796Z,15.17
2023-05-09T05:08:08.555Z,15.07
2023-05-09T05:10:35.238Z,15.73
2023-05-09T05:13:02.234Z,13.97
2023-05-09T05:15:28.926Z,16.77
2023-05-09T05:17:55.917Z,15.83
2023-05-09T05:20:22.890Z,13.47
2023-05-09T05:22:49.584Z,19.47
2023-05-09T05:25:17.885Z,14.80
2023-05-09T05:27:44.506Z,14.97
2023-05-09T05:30:11.862Z,15.43
2023-05-09T05:32:38.527Z,15.67
2023-05-09T05:35:05.740Z,16.07
2023-05-09T05:37:32.441Z,15.53
2023-05-09T05:39:59.216Z,18.17
2023-05-09T05:42:25.954Z,19.77
2023-05-09T05:44:52.627Z,18.33
2023-05-09T05:47:19.243Z,16.17
2023-05-09T05:49:46.214Z,20.57
2023-05-09T05:52:12.900Z,19.77
2023-05-09T05:54:39.558Z,18.07
2023-05-09T05:57:06.238Z,18.20
2023-05-09T05:59:32.886Z,19.60
2023-05-09T06:01:59.530Z,17.47
2023-05-09T06:04:26.225Z,18.20
2023-05-09T06:06:52.921Z,22.73
2023-05-09T06:11:50.891Z,19.00
2023-05-09T06:14:17.575Z,19.30
2023-05-09T06:16:44.280Z,17.48
2023-05-09T06:19:10.970Z,17.63
2023-05-09T06:21:37.649Z,17.40
2023-05-09T06:24:11.879Z,17.67
2023-05-09T06:26:41.159Z,18.02
2023-05-09T06:29:08.137Z,16.70
2023-05-09T06:31:38.761Z,19.67
2023-05-09T06:36:37.491Z,18.17
2023-05-09T06:39:04.395Z,17.60
2023-05-09T06:41:31.076Z,18.17
2023-05-09T06:43:57.820Z,17.88
2023-05-09T06:46:24.773Z,16.40
2023-05-09T06:48:51.485Z,17.70
2023-05-09T06:51:18.218Z,17.23
2023-05-09T06:53:44.903Z,15.98
2023-05-09T06:56:12.146Z,17.73
2023-05-09T06:58:38.870Z,22.30
2023-05-09T07:01:05.832Z,16.45
2023-05-09T07:03:32.484Z,15.77
2023-05-09T07:06:00.103Z,16.95
2023-05-09T07:08:27.223Z,19.05
2023-05-09T07:10:53.984Z,16.08
2023-05-09T07:13:20.754Z,15.82
2023-05-09T07:15:47.491Z,15.38
2023-05-09T07:18:14.124Z,14.85
2023-05-09T07:20:41.350Z,19.17
2023-05-09T07:23:08.106Z,15.15
2023-05-09T07:30:51.397Z,15.18
2023-05-09T07:33:18.089Z,15.13
2023-05-09T07:35:44.720Z,17.55
2023-05-09T07:38:11.449Z,14.07
2023-05-09T07:40:38.950Z,17.33
2023-05-09T07:45:38.443Z,14.93
2023-05-09T07:48:05.718Z,14.75
2023-05-09T07:50:32.395Z,14.65
2023-05-09T07:53:00.215Z,14.57
2023-05-09T07:55:26.905Z,14.50
2023-05-09T07:57:53.577Z,13.85
2023-05-09T08:00:24.088Z,14.20
2023-05-09T08:02:54.575Z,14.55
2023-05-09T08:05:21.370Z,14.27
2023-05-09T08:07:48.065Z,13.82
2023-05-09T08:10:14.843Z,15.15
2023-05-09T08:12:41.651Z,13.90
2023-05-09T08:15:08.636Z,14.23
2023-05-09T08:17:35.590Z,14.63
2023-05-09T08:20:02.275Z,13.50
2023-05-09T08:22:29.538Z,12.88
2023-05-09T08:24:56.152Z,12.20
2023-05-09T08:27:22.786Z,12.75
2023-05-09T08:29:49.488Z,12.02
2023-05-09T08:32:16.579Z,10.23
2023-05-09T08:34:43.334Z,11.68
2023-05-09T08:37:10.426Z,12.40
2023-05-09T08:39:38.119Z,11.75
2023-05-09T08:42:04.872Z,9.57
2023-05-09T08:44:32.328Z,13.10
2023-05-09T08:47:01.307Z,10.20
2023-05-09T08:49:28.932Z,9.65
2023-05-09T08:51:56.849Z,10.70
2023-05-09T08:54:24.470Z,12.18
2023-05-09T08:56:51.566Z,9.13
2023-05-09T08:59:19.537Z,8.70
2023-05-09T09:01:46.558Z,9.45
2023-05-09T09:04:13.269Z,8.63
2023-05-09T09:06:40.823Z,7.35
2023-05-09T09:09:09.377Z,7.00
2023-05-09T09:11:37.104Z,6.93
2023-05-09T09:14:11.819Z,6.82
2023-05-09T09:16:39.082Z,7.00
2023-05-09T09:19:12.458Z,6.20
2023-05-09T09:21:42.482Z,7.03
2023-05-09T09:24:09.835Z,6.82
2023-05-09T09:26:46.413Z,5.68
2023-05-09T09:29:13.828Z,5.22
2023-05-09T09:31:44.823Z,5.70
2023-05-09T09:34:12.383Z,5.05
2023-05-09T09:36:39.058Z,3.83
2023-05-09T09:39:05.928Z,3.70
2023-05-09T09:41:37.967Z,5.15
2023-05-09T09:44:22.742Z,4.18
2023-05-09T09:46:56.251Z,3.67
2023-05-09T09:49:25.729Z,57.63
2023-05-09T09:51:57.632Z,5.03
2023-05-09T09:54:28.019Z,4.72
2023-05-09T09:56:55.413Z,5.25
2023-05-09T09:59:26.927Z,5.30
2023-05-09T10:02:07.504Z,4.97
2023-05-09T10:04:37.056Z,4.80
2023-05-09T10:07:06.369Z,6.00
2023-05-09T10:09:35.336Z,4.65
2023-05-09T10:12:04.923Z,4.75
2023-05-09T10:14:35.130Z,4.47
2023-05-09T10:17:04.793Z,6.35
2023-05-09T10:19:32.248Z,5.32
2023-05-09T10:22:08.359Z,5.10
2023-05-09T10:24:40.774Z,5.82
2023-05-09T10:27:12.003Z,5.40
2023-05-09T10:29:51.908Z,5.40
2023-05-09T10:32:29.551Z,6.22
2023-05-09T10:35:02.256Z,8.23
2023-05-09T10:37:30.190Z,8.10
2023-05-09T10:39:58.050Z,6.22
2023-05-09T10:42:25.483Z,4.90
2023-05-09T10:44:53.763Z,6.40
2023-05-09T10:47:27.053Z,5.35
2023-05-09T10:49:55.047Z,5.65
2023-05-09T10:52:22.976Z,5.45
2023-05-09T10:55:01.513Z,5.32
2023-05-09T10:57:29.796Z,6.82
2023-05-09T10:59:57.304Z,6.13
2023-05-09T11:02:29.640Z,6.28
2023-05-09T11:05:16.954Z,15.13
2023-05-09T11:07:43.834Z,4.75
2023-05-09T11:10:18.446Z,5.53
2023-05-09T11:12:58.942Z,3.42
2023-05-09T11:15:27.918Z,3.85
2023-05-09T11:18:15.313Z,4.18
2023-05-09T11:20:48.462Z,3.58
2023-05-09T11:23:25.788Z,4.18
2023-05-09T11:25:53.331Z,4.57
2023-05-09T11:28:30.733Z,3.85
2023-05-09T11:31:19.080Z,3.17
2023-05-09T11:33:49.332Z,3.22
2023-05-09T11:36:20.167Z,3.80
2023-05-09T11:38:47.886Z,7.97
2023-05-09T11:41:15.913Z,4.18
2023-05-09T11:46:22.464Z,4.28
2023-05-09T11:48:49.468Z,4.22
2023-05-09T11:51:19.677Z,4.65
2023-05-09T11:53:49.953Z,3.90
2023-05-09T11:56:16.955Z,4.28
2023-05-09T11:58:44.252Z,3.88
2023-05-09T12:01:14.005Z,4.78
2023-05-09T12:03:46.540Z,5.13
2023-05-09T12:06:18.543Z,5.57
2023-05-09T12:08:46.504Z,5.05
2023-05-09T12:11:14.282Z,4.07
2023-05-09T12:13:49.150Z,5.55
2023-05-09T12:16:17.659Z,5.10
2023-05-09T12:18:49.580Z,6.28
2023-05-09T12:21:17.440Z,5.65
2023-05-09T12:23:44.816Z,6.60
2023-05-09T12:26:11.478Z,5.35
2023-05-09T12:28:39.111Z,5.00
2023-05-09T12:31:07.074Z,7.18
2023-05-09T12:33:34.045Z,5.30
2023-05-09T12:36:12.355Z,3.67
2023-05-09T12:38:39.616Z,4.50
2023-05-09T12:41:15.379Z,5.07
2023-05-09T12:46:27.188Z,4.60
2023-05-09T12:48:54.253Z,4.30
2023-05-09T12:51:22.153Z,5.50
2023-05-09T12:53:49.549Z,4.90
2023-05-09T12:56:20.685Z,5.03
2023-05-09T12:58:52.008Z,5.10
2023-05-09T13:03:52.533Z,3.50
2023-05-09T13:06:19.884Z,4.53
2023-05-09T13:08:59.222Z,3.50
2023-05-09T13:11:26.064Z,3.05
2023-05-09T13:13:56.215Z,3.28
2023-05-09T13:16:23.048Z,3.67
2023-05-09T13:18:49.754Z,2.60
2023-05-09T13:21:16.530Z,2.95
2023-05-09T13:23:44.688Z,5.28
2023-05-09T13:26:11.451Z,2.92
2023-05-09T13:31:16.475Z,3.25
2023-05-09T13:33:43.117Z,2.50
2023-05-09T13:36:09.840Z,3.78
2023-05-09T13:38:39.065Z,2.97
2023-05-09T13:41:06.217Z,2.60
2023-05-09T13:43:32.956Z,2.83
2023-05-09T13:45:59.648Z,2.95
2023-05-09T13:48:26.343Z,4.72
2023-05-09T13:50:53.070Z,2.40
2023-05-09T13:53:19.990Z,2.42
2023-05-09T13:55:47.405Z,2.67
2023-05-09T13:58:14.110Z,4.18
2023-05-09T14:00:40.920Z,4.50
2023-05-09T14:03:07.664Z,2.78
2023-05-09T14:05:34.864Z,13.45
2023-05-09T14:08:01.956Z,4.03
2023-05-09T14:10:28.657Z,2.92
2023-05-09T14:12:55.325Z,2.53
2023-05-09T14:15:21.999Z,6.95
2023-05-09T14:17:48.628Z,2.10
2023-05-09T14:20:18.462Z,2.45
2023-05-09T14:22:45.228Z,5.97
2023-05-09T14:25:11.862Z,2.65
2023-05-09T14:27:38.625Z,2.35
2023-05-09T14:30:05.672Z,8.02
2023-05-09T14:32:32.942Z,2.95
2023-05-09T14:34:59.825Z,4.40
2023-05-09T14:37:26.553Z,6.35
2023-05-09T14:39:53.196Z,35.83
2023-05-09T14:42:20.062Z,44.05
2023-05-09T14:44:47.504Z,3.40
2023-05-09T14:49:52.718Z,6.07
2023-05-09T14:52:19.389Z,2.85
2023-05-09T14:54:46.100Z,3.53
2023-05-09T14:57:12.806Z,2.50
2023-05-09T14:59:39.487Z,19.25
2023-05-09T15:02:06.318Z,3.80
2023-05-09T15:04:33.085Z,5.63
2023-05-09T15:06:59.986Z,4.45
2023-05-09T15:09:27.013Z,2.45
2023-05-09T15:11:54.254Z,2.45
2023-05-09T15:14:20.922Z,1.60
2023-05-09T15:16:47.655Z,3.70
2023-05-09T15:19:14.930Z,5.32
2023-05-09T15:21:41.698Z,3.42
2023-05-09T15:24:08.676Z,3.97
2023-05-09T15:26:35.377Z,5.13
2023-05-09T15:31:39.804Z,4.38
2023-05-09T15:34:06.724Z,2.63
2023-05-09T15:36:34.255Z,4.22
2023-05-09T15:39:01.246Z,4.20
2023-05-09T15:41:28.871Z,5.25
2023-05-09T15:43:55.539Z,8.88
2023-05-09T15:46:22.540Z,4.00
2023-05-09T15:48:49.499Z,5.75
2023-05-09T15:51:16.608Z,8.63
2023-05-09T15:53:43.222Z,6.45
2023-05-09T15:56:09.947Z,6.68
2023-05-09T15:58:37.012Z,38.90
2023-05-09T16:01:06.388Z,23.60
2023-05-09T16:03:33.249Z,8.20
2023-05-09T16:06:00.106Z,3.15
2023-05-09T16:08:26.950Z,3.30
2023-05-09T16:10:53.651Z,3.65
2023-05-09T16:13:20.348Z,3.88
2023-05-09T16:15:48.286Z,4.10
2023-05-09T16:18:14.945Z,3.78
2023-05-09T16:20:42.229Z,4.03
2023-05-09T16:23:08.877Z,4.65
2023-05-09T16:25:35.656Z,3.50
2023-05-09T16:28:02.528Z,20.67
2023-05-09T16:30:29.659Z,4.63
2023-05-09T16:32:56.632Z,5.65
2023-05-09T16:35:23.441Z,3.58
2023-05-09T16:37:50.178Z,3.60
2023-05-09T16:40:17.002Z,6.22
2023-05-09T16:45:15.206Z,6.60
2023-05-09T16:47:41.973Z,5.53
2023-05-09T16:50:10.606Z,3.72
2023-05-09T16:52:37.473Z,5.47
2023-05-09T16:55:04.458Z,4.93
2023-05-09T16:57:31.128Z,6.95
2023-05-09T16:59:58.687Z,6.60
2023-05-09T17:02:25.518Z,3.92
2023-05-09T17:04:52.305Z,6.38
2023-05-09T17:07:19.420Z,5.65
2023-05-09T17:09:46.198Z,10.48
2023-05-09T17:12:17.672Z,3.45
2023-05-09T17:14:45.575Z,6.47
2023-05-09T17:17:13.322Z,4.85
2023-05-09T17:19:40.111Z,5.05
2023-05-09T17:22:08.165Z,3.75
2023-05-09T17:24:34.852Z,9.95
2023-05-09T17:27:01.982Z,4.47
2023-05-09T17:29:30.820Z,3.15
2023-05-09T17:32:01.080Z,8.45
2023-05-09T17:34:28.651Z,4.45
2023-05-09T17:36:55.598Z,3.83
2023-05-09T17:39:22.290Z,3.25
2023-05-09T17:41:48.920Z,2.58
2023-05-09T17:46:49.608Z,6.65
2023-05-09T17:49:17.085Z,4.65
2023-05-09T17:51:44.107Z,4.05
2023-05-09T17:54:11.136Z,5.82
2023-05-09T17:56:37.758Z,5.03
2023-05-09T17:59:04.510Z,6.80
2023-05-09T18:01:31.194Z,6.22
2023-05-09T18:03:58.100Z,7.25
2023-05-09T18:06:26.223Z,5.53
2023-05-09T18:08:52.906Z,11.75
2023-05-09T18:11:19.564Z,6.00
2023-05-09T18:13:46.298Z,4.65
2023-05-09T18:16:13.277Z,6.30
2023-05-09T18:18:39.941Z,4.13
2023-05-09T18:21:08.172Z,7.25
2023-05-09T18:23:34.841Z,8.98
2023-05-09T18:26:01.946Z,3.65
2023-05-09T18:28:29.045Z,4.15
2023-05-09T18:30:58.375Z,6.03
2023-05-09T18:33:28.965Z,3.13
2023-05-09T18:35:55.781Z,8.48
2023-05-09T18:38:22.932Z,5.55
2023-05-09T18:40:51.957Z,3.38
2023-05-09T18:43:20.867Z,5.35
2023-05-09T18:45:48.254Z,3.63
2023-05-09T18:48:16.532Z,4.65
2023-05-09T18:50:43.516Z,3.40
2023-05-09T18:53:10.139Z,6.00
2023-05-09T18:55:36.731Z,5.47
2023-05-09T18:58:03.406Z,3.90
2023-05-09T19:00:30.113Z,6.82
2023-05-09T19:02:56.866Z,3.60
2023-05-09T19:05:23.577Z,4.07
2023-05-09T19:07:51.257Z,6.07
2023-05-09T19:10:18.718Z,3.63
2023-05-09T19:12:46.319Z,4.03
2023-05-09T19:15:13.340Z,4.10
2023-05-09T19:17:40.507Z,7.85
2023-05-09T19:20:08.564Z,4.72
2023-05-09T19:22:35.758Z,4.70
2023-05-09T19:25:02.590Z,10.65
2023-05-09T19:27:29.276Z,13.68
2023-05-09T19:29:55.890Z,10.93
2023-05-09T19:32:22.547Z,14.75
2023-05-09T19:34:49.198Z,14.90
2023-05-09T19:37:15.866Z,6.57
2023-05-09T19:39:42.491Z,10.85
2023-05-09T19:42:09.229Z,11.80
2023-05-09T19:44:35.908Z,6.07
2023-05-09T19:47:05.449Z,5.97
2023-05-09T19:49:32.939Z,3.97
2023-05-09T19:51:59.560Z,4.15
2023-05-09T19:54:27.160Z,4.18
2023-05-09T19:56:54.009Z,6.15
2023-05-09T19:59:20.828Z,4.47
2023-05-09T20:01:47.533Z,5.38
2023-05-09T20:04:14.365Z,4.40
2023-05-09T20:06:41.393Z,5.13
2023-05-09T20:09:08.152Z,4.25
2023-05-09T20:11:34.990Z,4.68
2023-05-09T20:14:01.651Z,4.45
2023-05-09T20:16:28.733Z,5.82
2023-05-09T20:18:55.871Z,7.72
2023-05-09T20:21:22.538Z,3.40
2023-05-09T20:23:49.256Z,5.90
2023-05-09T20:26:15.949Z,5.47
2023-05-09T20:28:42.675Z,3.08
2023-05-09T20:31:09.382Z,2.67
2023-05-09T20:33:36.174Z,2.78
2023-05-09T20:36:02.800Z,2.42
2023-05-09T20:38:29.471Z,2.42
2023-05-09T20:40:56.085Z,2.08
2023-05-09T20:43:22.831Z,2.42
2023-05-09T20:45:50.286Z,2.50
2023-05-09T20:48:17.368Z,2.78
2023-05-09T20:50:44.048Z,3.85
2023-05-09T20:53:10.685Z,2.20
2023-05-09T20:55:37.410Z,2.25
2023-05-09T20:58:04.113Z,2.30
2023-05-09T21:03:02.835Z,1.88
2023-05-09T21:05:29.617Z,2.80
2023-05-09T21:07:56.229Z,4.60
2023-05-09T21:12:54.201Z,1.90
2023-05-09T21:15:21.012Z,1.95
2023-05-09T21:17:47.732Z,2.10
2023-05-09T21:20:14.861Z,2.88
2023-05-09T21:25:19.323Z,2.30
2023-05-09T21:27:46.530Z,1.67
2023-05-09T21:30:13.427Z,1.70
2023-05-09T21:32:40.420Z,2.50
2023-05-09T21:35:11.119Z,1.75
2023-05-09T21:37:37.783Z,1.60
2023-05-09T21:40:05.908Z,1.63
2023-05-09T21:42:32.646Z,1.67
2023-05-09T21:44:59.242Z,1.77
2023-05-09T21:47:26.149Z,1.33
2023-05-09T21:49:53.076Z,1.55
2023-05-09T21:52:19.784Z,3.00
2023-05-09T21:54:46.520Z,2.50
2023-05-09T21:57:13.128Z,3.30
2023-05-09T21:59:39.738Z,1.23
2023-05-09T22:02:06.387Z,1.50
2023-05-09T22:04:33.080Z,1.65
2023-05-09T22:06:59.707Z,1.23
2023-05-09T22:09:26.377Z,2.90
2023-05-09T22:11:53.281Z,1.25
2023-05-09T22:14:19.963Z,1.35
2023-05-09T22:16:46.681Z,1.55
2023-05-09T22:19:13.708Z,1.55
2023-05-09T22:21:40.453Z,1.95
2023-05-09T22:24:07.971Z,1.83
2023-05-09T22:26:34.742Z,1.10
2023-05-09T22:29:01.484Z,1.30
2023-05-09T22:31:28.180Z,1.60
2023-05-09T22:33:54.833Z,1.38
2023-05-09T22:36:22.028Z,2.15
2023-05-09T22:38:48.680Z,1.42
2023-05-09T22:41:15.348Z,1.77
2023-05-09T22:43:42.010Z,1.30
2023-05-09T22:46:09.053Z,1.45
2023-05-09T22:48:35.850Z,1.70
2023-05-09T22:51:02.863Z,1.60
2023-05-09T22:53:31.157Z,3.72
2023-05-09T22:55:58.043Z,1.65
2023-05-09T22:58:25.221Z,1.88
2023-05-09T23:00:51.923Z,1.48
2023-05-09T23:03:18.786Z,2.95
2023-05-09T23:05:45.490Z,4.90
2023-05-09T23:08:12.177Z,4.15
2023-05-09T23:10:38.857Z,2.42
2023-05-09T23:13:05.575Z,2.47
2023-05-09T23:15:32.401Z,2.10
2023-05-09T23:17:59.215Z,2.05
2023-05-09T23:20:26.495Z,1.88
2023-05-09T23:22:53.148Z,2.10
2023-05-09T23:25:19.818Z,1.67
2023-05-09T23:27:47.140Z,1.33
2023-05-09T23:30:14.104Z,1.10
2023-05-09T23:32:41.006Z,1.20
2023-05-09T23:35:07.910Z,1.10
2023-05-09T23:37:34.623Z,1.73
2023-05-09T23:40:01.399Z,1.30
2023-05-09T23:45:00.014Z,1.13
2023-05-09T23:47:27.052Z,2.05
2023-05-09T23:49:53.759Z,1.25
2023-05-09T23:52:20.424Z,0.95
2023-05-09T23:54:47.069Z,2.78
2023-05-09T23:57:13.726Z,1.08
2023-05-09T23:59:42.234Z,1.00
